Time;durP1;ratioP1;P1;durP2;ratioP2;P2;SDS_P1;SDS_P2;PMS_P1;PMS_P2;Temp;Humidity;BMP_temperature;BMP_pressure;BME280_temperature;BME280_humidity;BME280_pressure;Samples;Min_cycle;Max_cycle;Signal;HPM_P1;HPM_P2
2021/07/04 00:02:04;;;;;;;5.47;3.63;;;;;;;;;;5064941;28;20047;-77
2021/07/04 00:04:49;;;;;;;4.55;3.55;;;;;;;;;;5064780;28;20096;-77
2021/07/04 00:07:33;;;;;;;5.07;3.72;;;;;;;;;;5047983;28;20101;-77
2021/07/04 00:10:25;;;;;;;4.47;3.50;;;;;;;;;;5056604;28;20066;-77
2021/07/04 00:13:10;;;;;;;4.53;3.40;;;;;;;;;;5057076;28;20042;-77
2021/07/04 00:15:55;;;;;;;4.32;3.10;;;;;;;;;;5066564;28;20040;-76
2021/07/04 00:18:40;;;;;;;4.10;3.10;;;;;;;;;;5066870;28;20756;-77
2021/07/04 00:21:24;;;;;;;4.72;3.20;;;;;;;;;;5066277;28;20105;-78
2021/07/04 00:24:09;;;;;;;3.60;3.00;;;;;;;;;;5067192;28;20677;-77
2021/07/04 00:26:54;;;;;;;4.47;3.22;;;;;;;;;;5067713;28;20031;-78
2021/07/04 00:29:38;;;;;;;4.10;3.05;;;;;;;;;;5066928;28;20055;-78
2021/07/04 00:32:23;;;;;;;4.13;3.15;;;;;;;;;;5067378;28;20038;-78
2021/07/04 00:35:08;;;;;;;3.60;2.70;;;;;;;;;;5053113;28;20486;-78
2021/07/04 00:37:53;;;;;;;3.75;2.72;;;;;;;;;;5053091;28;20157;-77
2021/07/04 00:40:37;;;;;;;5.10;2.88;;;;;;;;;;5067404;28;20052;-77
2021/07/04 00:43:22;;;;;;;4.90;2.80;;;;;;;;;;5067848;28;20137;-77
2021/07/04 00:46:06;;;;;;;3.42;2.80;;;;;;;;;;5045723;28;20044;-77
2021/07/04 00:48:51;;;;;;;3.72;2.60;;;;;;;;;;5057381;28;20043;-77
2021/07/04 00:51:35;;;;;;;3.28;2.58;;;;;;;;;;5060658;28;20062;-77
2021/07/04 00:54:20;;;;;;;3.70;2.50;;;;;;;;;;5064936;28;20407;-77
2021/07/04 00:57:04;;;;;;;3.28;2.40;;;;;;;;;;5064155;28;20094;-77
2021/07/04 00:59:49;;;;;;;3.88;2.70;;;;;;;;;;5048035;28;20114;-77
2021/07/04 01:02:34;;;;;;;3.97;2.65;;;;;;;;;;5064916;28;20162;-77
2021/07/04 01:05:19;;;;;;;2.80;2.33;;;;;;;;;;5065895;28;20074;-77
2021/07/04 01:08:04;;;;;;;2.65;2.22;;;;;;;;;;5044550;28;20157;-77
2021/07/04 01:10:49;;;;;;;2.95;2.42;;;;;;;;;;5058705;28;20047;-77
2021/07/04 01:13:34;;;;;;;2.70;2.20;;;;;;;;;;5065150;28;20206;-77
2021/07/04 01:16:18;;;;;;;2.90;2.20;;;;;;;;;;5065063;28;20254;-77
2021/07/04 01:19:03;;;;;;;2.75;2.05;;;;;;;;;;5063153;28;20083;-77
2021/07/04 01:21:48;;;;;;;2.80;2.13;;;;;;;;;;5060239;28;20625;-77
2021/07/04 01:24:32;;;;;;;2.58;2.13;;;;;;;;;;5063827;28;20411;-77
2021/07/04 01:27:17;;;;;;;2.65;2.10;;;;;;;;;;5051154;28;20657;-77
2021/07/04 01:30:01;;;;;;;3.33;2.17;;;;;;;;;;5049909;28;20046;-77
2021/07/04 01:32:46;;;;;;;3.15;2.50;;;;;;;;;;5050363;28;20047;-78
2021/07/04 01:35:31;;;;;;;2.92;2.30;;;;;;;;;;5063805;28;20043;-78
2021/07/04 01:38:15;;;;;;;3.33;2.30;;;;;;;;;;5064716;28;20059;-77
2021/07/04 01:41:00;;;;;;;2.63;2.03;;;;;;;;;;5064784;28;20564;-77
2021/07/04 01:43:44;;;;;;;3.53;2.65;;;;;;;;;;5063444;28;20419;-78
2021/07/04 01:46:29;;;;;;;3.42;2.30;;;;;;;;;;5066914;28;20047;-78
2021/07/04 01:49:13;;;;;;;3.08;2.50;;;;;;;;;;5052261;28;20411;-77
2021/07/04 01:51:58;;;;;;;3.00;2.30;;;;;;;;;;5066024;28;20204;-78
2021/07/04 01:54:42;;;;;;;2.60;2.22;;;;;;;;;;5065918;28;20663;-77
2021/07/04 01:57:27;;;;;;;3.33;2.00;;;;;;;;;;5044644;28;20395;-78
2021/07/04 02:00:12;;;;;;;3.28;2.17;;;;;;;;;;5049702;28;20112;-77
2021/07/04 02:02:57;;;;;;;2.90;2.03;;;;;;;;;;5066826;28;20036;-77
2021/07/04 02:05:42;;;;;;;2.80;2.28;;;;;;;;;;5067711;28;20071;-78
2021/07/04 02:08:27;;;;;;;2.55;2.05;;;;;;;;;;5067847;28;20526;-77
2021/07/04 02:11:11;;;;;;;3.35;2.40;;;;;;;;;;5046456;28;20086;-77
2021/07/04 02:13:56;;;;;;;3.30;2.38;;;;;;;;;;5065817;28;20471;-77
2021/07/04 02:16:40;;;;;;;2.67;2.10;;;;;;;;;;5043040;28;20039;-78
2021/07/04 02:19:31;;;;;;;2.72;2.38;;;;;;;;;;5051035;28;20079;-77
2021/07/04 02:22:15;;;;;;;2.70;2.15;;;;;;;;;;5065086;28;20039;-77
2021/07/04 02:25:00;;;;;;;3.08;2.38;;;;;;;;;;5064956;28;20038;-78
2021/07/04 02:27:44;;;;;;;2.72;2.00;;;;;;;;;;5066267;28;20036;-78
2021/07/04 02:30:29;;;;;;;2.65;2.20;;;;;;;;;;5066156;28;20589;-78
2021/07/04 02:33:14;;;;;;;2.92;2.13;;;;;;;;;;5064620;28;20035;-78
2021/07/04 02:35:59;;;;;;;2.72;2.15;;;;;;;;;;5065450;28;20047;-78
2021/07/04 02:38:44;;;;;;;2.85;2.20;;;;;;;;;;5046046;28;20035;-77
2021/07/04 02:41:28;;;;;;;3.00;2.13;;;;;;;;;;5063516;28;20131;-78
2021/07/04 02:44:13;;;;;;;2.72;2.15;;;;;;;;;;5065128;28;20549;-78
2021/07/04 02:46:57;;;;;;;2.70;2.20;;;;;;;;;;5066257;28;20129;-78
2021/07/04 02:49:42;;;;;;;2.85;2.13;;;;;;;;;;5065399;28;20407;-78
2021/07/04 02:52:27;;;;;;;2.35;2.03;;;;;;;;;;5066657;28;20038;-77
2021/07/04 02:55:12;;;;;;;3.53;2.13;;;;;;;;;;5066378;28;20036;-80
2021/07/04 02:57:56;;;;;;;2.60;2.00;;;;;;;;;;5066241;28;20540;-80
2021/07/04 03:00:44;;;;;;;2.63;2.13;;;;;;;;;;5055180;28;20526;-80
2021/07/04 03:03:29;;;;;;;2.65;2.15;;;;;;;;;;5046932;28;20051;-80
2021/07/04 03:06:15;;;;;;;3.85;1.98;;;;;;;;;;5060149;28;20095;-80
2021/07/04 03:09:00;;;;;;;2.85;2.05;;;;;;;;;;5059674;28;20090;-80
2021/07/04 03:11:44;;;;;;;3.50;2.30;;;;;;;;;;5058940;28;20027;-80
2021/07/04 03:14:29;;;;;;;2.55;1.85;;;;;;;;;;5050463;28;20043;-80
2021/07/04 03:17:14;;;;;;;3.05;2.10;;;;;;;;;;5047062;28;20040;-80
2021/07/04 03:19:59;;;;;;;2.50;2.00;;;;;;;;;;5058785;28;20059;-80
2021/07/04 03:22:44;;;;;;;2.70;1.90;;;;;;;;;;5051953;28;20403;-80
2021/07/04 03:25:28;;;;;;;2.50;1.95;;;;;;;;;;5066212;28;20046;-80
2021/07/04 03:28:13;;;;;;;2.72;1.98;;;;;;;;;;5066251;28;20043;-80
2021/07/04 03:30:57;;;;;;;3.45;2.10;;;;;;;;;;5050576;28;20133;-80
2021/07/04 03:33:42;;;;;;;2.95;2.10;;;;;;;;;;5051734;28;20048;-80
2021/07/04 03:36:26;;;;;;;2.75;2.17;;;;;;;;;;5062470;28;20534;-80
2021/07/04 03:39:11;;;;;;;2.45;1.90;;;;;;;;;;5064845;28;20107;-80
2021/07/04 03:41:55;;;;;;;2.80;2.15;;;;;;;;;;5059735;28;20641;-80
2021/07/04 03:44:40;;;;;;;3.03;2.10;;;;;;;;;;5036772;28;20043;-80
2021/07/04 03:47:26;;;;;;;2.83;2.33;;;;;;;;;;5066159;28;20039;-81
2021/07/04 03:50:11;;;;;;;3.42;1.85;;;;;;;;;;5049838;28;20040;-80
2021/07/04 03:52:56;;;;;;;2.28;1.85;;;;;;;;;;5051398;28;20094;-80
2021/07/04 03:55:40;;;;;;;2.80;2.05;;;;;;;;;;5065869;28;20047;-80
2021/07/04 03:58:25;;;;;;;2.88;2.15;;;;;;;;;;5054457;28;20043;-79
2021/07/04 04:01:17;;;;;;;3.03;2.03;;;;;;;;;;5067357;28;20465;-80
2021/07/04 04:04:02;;;;;;;3.33;2.13;;;;;;;;;;5068238;28;20538;-80
2021/07/04 04:06:47;;;;;;;2.60;2.00;;;;;;;;;;5049188;28;20031;-80
2021/07/04 04:09:31;;;;;;;3.40;2.30;;;;;;;;;;5057380;28;20513;-80
2021/07/04 04:12:16;;;;;;;3.20;1.80;;;;;;;;;;5064903;28;20071;-80
2021/07/04 04:15:01;;;;;;;3.40;2.20;;;;;;;;;;5067741;28;20124;-80
2021/07/04 04:17:45;;;;;;;3.47;2.25;;;;;;;;;;5054835;28;20055;-80
2021/07/04 04:20:30;;;;;;;3.63;2.08;;;;;;;;;;5068049;28;20048;-80
2021/07/04 04:23:15;;;;;;;3.17;2.13;;;;;;;;;;5061646;28;20141;-80
2021/07/04 04:25:59;;;;;;;3.50;2.30;;;;;;;;;;5064578;28;20040;-80
2021/07/04 04:28:44;;;;;;;3.85;2.20;;;;;;;;;;5066959;28;20035;-80
2021/07/04 04:31:28;;;;;;;3.15;2.20;;;;;;;;;;5067779;28;20551;-80
2021/07/04 04:34:13;;;;;;;3.45;2.00;;;;;;;;;;5053246;28;20039;-80
2021/07/04 04:36:59;;;;;;;3.28;2.25;;;;;;;;;;5068300;28;20043;-80
2021/07/04 04:39:43;;;;;;;3.13;2.10;;;;;;;;;;5067762;28;20105;-80
2021/07/04 04:42:28;;;;;;;2.67;2.10;;;;;;;;;;5069469;28;20048;-80
2021/07/04 04:45:13;;;;;;;3.88;2.30;;;;;;;;;;5053901;28;20043;-81
2021/07/04 04:47:57;;;;;;;2.80;2.30;;;;;;;;;;5068241;28;20067;-80
2021/07/04 04:50:42;;;;;;;3.30;2.10;;;;;;;;;;5049160;28;20547;-80
2021/07/04 04:53:26;;;;;;;2.60;1.98;;;;;;;;;;5065925;28;20100;-79
2021/07/04 04:56:11;;;;;;;3.13;2.20;;;;;;;;;;5047409;28;20532;-79
2021/07/04 04:58:55;;;;;;;2.95;2.10;;;;;;;;;;5045466;28;20110;-80
2021/07/04 05:01:40;;;;;;;3.03;1.98;;;;;;;;;;5062633;28;20039;-80
2021/07/04 05:04:24;;;;;;;3.50;1.98;;;;;;;;;;5048388;28;20117;-80
2021/07/04 05:07:09;;;;;;;2.53;1.92;;;;;;;;;;5065567;28;20043;-80
2021/07/04 05:09:54;;;;;;;2.97;1.85;;;;;;;;;;5043683;28;20103;-79
2021/07/04 05:12:38;;;;;;;2.72;2.03;;;;;;;;;;5043254;28;20075;-77
2021/07/04 05:15:23;;;;;;;3.08;1.98;;;;;;;;;;5057015;28;20039;-77
2021/07/04 05:18:07;;;;;;;2.40;1.77;;;;;;;;;;5075788;28;20498;-77
2021/07/04 05:20:52;;;;;;;2.30;1.90;;;;;;;;;;5065023;28;20512;-77
2021/07/04 05:23:36;;;;;;;3.15;1.85;;;;;;;;;;5064934;28;20107;-77
2021/07/04 05:26:21;;;;;;;3.03;1.73;;;;;;;;;;5063941;28;20525;-77
2021/07/04 05:29:06;;;;;;;2.25;1.60;;;;;;;;;;5064473;28;20043;-77
2021/07/04 05:31:50;;;;;;;2.70;1.90;;;;;;;;;;5051101;28;20343;-77
2021/07/04 05:34:35;;;;;;;2.78;1.75;;;;;;;;;;5064117;28;20465;-77
2021/07/04 05:37:20;;;;;;;3.05;1.80;;;;;;;;;;5065544;28;20097;-77
2021/07/04 05:40:10;;;;;;;3.08;1.75;;;;;;;;;;5050359;28;20526;-77
2021/07/04 05:42:55;;;;;;;3.05;1.88;;;;;;;;;;5065124;28;20507;-77
2021/07/04 05:45:40;;;;;;;2.97;1.90;;;;;;;;;;5064391;28;20040;-77
2021/07/04 05:48:24;;;;;;;2.55;1.73;;;;;;;;;;5066107;28;20119;-77
2021/07/04 05:51:09;;;;;;;3.30;1.95;;;;;;;;;;5049961;28;20128;-77
2021/07/04 05:53:54;;;;;;;3.10;1.80;;;;;;;;;;5064753;28;20059;-77
2021/07/04 05:56:39;;;;;;;3.05;1.85;;;;;;;;;;5063915;28;20047;-77
2021/07/04 05:59:23;;;;;;;4.50;1.90;;;;;;;;;;5055359;28;20588;-77
2021/07/04 06:02:08;;;;;;;3.22;2.10;;;;;;;;;;5063551;28;20174;-77
2021/07/04 06:04:53;;;;;;;2.95;1.80;;;;;;;;;;5062628;28;20662;-77
2021/07/04 06:07:37;;;;;;;2.67;1.73;;;;;;;;;;5064336;28;20039;-77
2021/07/04 06:10:21;;;;;;;3.10;1.90;;;;;;;;;;5054117;28;20407;-77
2021/07/04 06:13:06;;;;;;;3.42;2.00;;;;;;;;;;5062988;28;20039;-77
2021/07/04 06:15:50;;;;;;;2.85;1.90;;;;;;;;;;5062677;28;20035;-77
2021/07/04 06:18:35;;;;;;;2.85;2.03;;;;;;;;;;5049322;28;20130;-77
2021/07/04 06:21:19;;;;;;;2.78;2.03;;;;;;;;;;5064639;28;20142;-77
2021/07/04 06:24:04;;;;;;;3.25;2.25;;;;;;;;;;5063228;28;20044;-79
2021/07/04 06:26:49;;;;;;;4.43;2.10;;;;;;;;;;5063028;28;20090;-79
2021/07/04 06:29:34;;;;;;;3.58;2.30;;;;;;;;;;5062151;28;20578;-80
2021/07/04 06:32:18;;;;;;;3.67;2.33;;;;;;;;;;5062595;28;20463;-79
2021/07/04 06:35:03;;;;;;;3.42;2.05;;;;;;;;;;5050249;28;20079;-80
2021/07/04 06:37:48;;;;;;;3.28;2.03;;;;;;;;;;5062684;28;20094;-80
2021/07/04 06:40:32;;;;;;;3.22;2.47;;;;;;;;;;5063255;28;20051;-79
2021/07/04 06:43:17;;;;;;;3.80;2.28;;;;;;;;;;5064086;28;20121;-79
2021/07/04 06:46:01;;;;;;;4.53;2.38;;;;;;;;;;5064016;28;20039;-79
2021/07/04 06:48:46;;;;;;;3.33;2.20;;;;;;;;;;5062644;28;20350;-80
2021/07/04 06:51:30;;;;;;;3.15;2.30;;;;;;;;;;5029903;28;20036;-80
2021/07/04 06:54:15;;;;;;;4.32;2.58;;;;;;;;;;5045839;28;20079;-79
2021/07/04 06:57:26;;;;;;;3.80;2.70;;;;;;;;;;5062480;28;20126;-79
2021/07/04 07:00:06;;;;;;;4.05;2.30;;;;;;;;;;5064012;28;20055;-79
2021/07/04 07:02:51;;;;;;;4.28;2.45;;;;;;;;;;5043498;28;20032;-79
2021/07/04 07:05:35;;;;;;;3.97;2.67;;;;;;;;;;5053817;28;20097;-80
2021/07/04 07:08:20;;;;;;;3.20;2.45;;;;;;;;;;5062160;28;20085;-79
2021/07/04 07:11:05;;;;;;;4.28;3.08;;;;;;;;;;5062874;28;20039;-79
2021/07/04 07:13:50;;;;;;;4.72;2.53;;;;;;;;;;5064803;28;20423;-79
2021/07/04 07:16:34;;;;;;;4.63;2.58;;;;;;;;;;5064792;28;20044;-79
2021/07/04 07:19:19;;;;;;;5.50;2.45;;;;;;;;;;5063252;28;20454;-79
2021/07/04 07:22:04;;;;;;;4.05;2.38;;;;;;;;;;5064885;28;20145;-79
2021/07/04 07:24:49;;;;;;;3.97;2.63;;;;;;;;;;5048612;28;20218;-80
2021/07/04 07:27:33;;;;;;;4.75;2.70;;;;;;;;;;5064228;28;20526;-79
2021/07/04 07:30:18;;;;;;;3.40;2.30;;;;;;;;;;5062651;28;20709;-79
2021/07/04 07:33:03;;;;;;;3.45;2.42;;;;;;;;;;5066391;28;20099;-79
2021/07/04 07:35:51;;;;;;;4.65;2.83;;;;;;;;;;5063442;28;20586;-80
2021/07/04 07:38:36;;;;;;;4.20;2.92;;;;;;;;;;5067221;28;20063;-79
2021/07/04 07:41:20;;;;;;;4.22;2.40;;;;;;;;;;5052422;28;20051;-80
2021/07/04 07:44:05;;;;;;;4.82;2.95;;;;;;;;;;5066215;28;20043;-80
2021/07/04 07:46:50;;;;;;;3.47;2.63;;;;;;;;;;5052921;28;20039;-79
2021/07/04 07:49:34;;;;;;;3.55;2.42;;;;;;;;;;5066118;28;20101;-79
2021/07/04 07:52:19;;;;;;;4.25;2.60;;;;;;;;;;5068098;28;20882;-78
2021/07/04 07:55:04;;;;;;;4.35;2.50;;;;;;;;;;5066980;28;20101;-76
2021/07/04 07:57:48;;;;;;;5.05;2.95;;;;;;;;;;5066338;28;20120;-77
2021/07/04 08:00:33;;;;;;;4.47;2.85;;;;;;;;;;5066753;28;20177;-77
2021/07/04 08:03:18;;;;;;;4.20;2.72;;;;;;;;;;5067065;28;20035;-77
2021/07/04 08:06:02;;;;;;;5.88;3.03;;;;;;;;;;5064551;28;20043;-77
2021/07/04 08:08:47;;;;;;;5.82;3.15;;;;;;;;;;5047051;28;20086;-77
2021/07/04 08:11:32;;;;;;;5.03;2.90;;;;;;;;;;5055739;28;20407;-77
2021/07/04 08:14:17;;;;;;;5.00;2.60;;;;;;;;;;5051990;28;20039;-77
2021/07/04 08:17:02;;;;;;;5.03;2.90;;;;;;;;;;5066783;28;20399;-77
2021/07/04 08:19:46;;;;;;;3.92;2.70;;;;;;;;;;5059717;28;20471;-77
2021/07/04 08:22:31;;;;;;;4.63;2.55;;;;;;;;;;5049269;28;20554;-77
2021/07/04 08:25:16;;;;;;;4.63;3.05;;;;;;;;;;5056994;28;20051;-77
2021/07/04 08:28:00;;;;;;;4.65;2.83;;;;;;;;;;5065801;28;20043;-77
2021/07/04 08:30:45;;;;;;;4.60;2.90;;;;;;;;;;5066516;28;20039;-77
2021/07/04 08:33:30;;;;;;;4.13;2.90;;;;;;;;;;5066607;28;20039;-77
2021/07/04 08:36:14;;;;;;;4.70;2.80;;;;;;;;;;5063959;28;20078;-77
2021/07/04 08:38:59;;;;;;;4.15;2.67;;;;;;;;;;5066788;28;20062;-77
2021/07/04 08:41:43;;;;;;;4.75;2.75;;;;;;;;;;5046199;28;20122;-77
2021/07/04 08:44:28;;;;;;;4.63;2.50;;;;;;;;;;5046861;28;20163;-77
2021/07/04 08:47:13;;;;;;;4.30;2.70;;;;;;;;;;5048665;28;20129;-76
2021/07/04 08:49:57;;;;;;;3.67;2.75;;;;;;;;;;5064900;28;20040;-77
2021/07/04 08:52:42;;;;;;;3.55;2.58;;;;;;;;;;5065683;28;20082;-77
2021/07/04 08:55:28;;;;;;;5.10;2.67;;;;;;;;;;5065860;28;20055;-77
2021/07/04 08:58:12;;;;;;;4.03;2.60;;;;;;;;;;5065854;28;20039;-77
2021/07/04 09:01:16;;;;;;;4.47;2.28;;;;;;;;;;5050969;28;20102;-77
2021/07/04 09:04:07;;;;;;;3.72;2.20;;;;;;;;;;5065061;28;20038;-77
2021/07/04 09:06:53;;;;;;;4.68;2.40;;;;;;;;;;5066675;28;20128;-77
2021/07/04 09:09:37;;;;;;;4.70;2.63;;;;;;;;;;5045738;28;20415;-77
2021/07/04 09:12:22;;;;;;;4.25;2.63;;;;;;;;;;5061508;28;20039;-77
2021/07/04 09:15:11;;;;;;;4.60;2.78;;;;;;;;;;5064501;28;20067;-77
2021/07/04 09:17:57;;;;;;;3.20;2.40;;;;;;;;;;5065401;28;20616;-77
2021/07/04 09:20:42;;;;;;;3.83;2.33;;;;;;;;;;5051318;28;20096;-77
2021/07/04 09:23:33;;;;;;;5.55;2.65;;;;;;;;;;5046475;28;20098;-76
2021/07/04 09:26:38;;;;;;;3.92;2.20;;;;;;;;;;5064138;28;20055;-76
2021/07/04 09:29:41;;;;;;;3.33;2.13;;;;;;;;;;5051094;28;20044;-77
2021/07/04 09:32:27;;;;;;;3.47;2.40;;;;;;;;;;5064486;28;20116;-76
2021/07/04 09:35:14;;;;;;;3.80;2.30;;;;;;;;;;5050929;28;20047;-77
2021/07/04 09:37:59;;;;;;;3.00;2.30;;;;;;;;;;5051436;28;20470;-77
2021/07/04 09:40:44;;;;;;;3.40;2.17;;;;;;;;;;5062687;28;20129;-77
2021/07/04 09:43:29;;;;;;;2.90;2.15;;;;;;;;;;5062737;28;20066;-77
2021/07/04 09:46:13;;;;;;;3.00;2.10;;;;;;;;;;5050146;28;20043;-76
2021/07/04 09:48:58;;;;;;;3.95;2.00;;;;;;;;;;5065835;28;20233;-76
2021/07/04 09:51:42;;;;;;;3.72;2.13;;;;;;;;;;5044934;28;20044;-77
2021/07/04 09:54:27;;;;;;;2.92;2.25;;;;;;;;;;5062358;28;20082;-77
2021/07/04 09:57:11;;;;;;;3.00;2.00;;;;;;;;;;5063422;28;20407;-77
2021/07/04 10:00:15;;;;;;;3.60;2.20;;;;;;;;;;5064241;28;20051;-77
2021/07/04 10:03:08;;;;;;;4.05;2.10;;;;;;;;;;5064578;28;20102;-76
2021/07/04 10:05:56;;;;;;;5.72;2.22;;;;;;;;;;5049219;28;20082;-76
2021/07/04 10:08:41;;;;;;;2.83;1.80;;;;;;;;;;5063654;28;20044;-76
2021/07/04 10:11:26;;;;;;;3.65;2.20;;;;;;;;;;5059708;28;20486;-77
2021/07/04 10:14:11;;;;;;;3.00;2.30;;;;;;;;;;5062796;28;20047;-77
2021/07/04 10:16:55;;;;;;;2.70;2.10;;;;;;;;;;5044229;28;20040;-77
2021/07/04 10:19:40;;;;;;;3.30;2.03;;;;;;;;;;5048680;28;20478;-77
2021/07/04 10:22:25;;;;;;;3.03;1.95;;;;;;;;;;5064164;28;20059;-77
2021/07/04 10:25:09;;;;;;;3.42;2.30;;;;;;;;;;5049439;28;20055;-76
2021/07/04 10:27:54;;;;;;;4.00;2.65;;;;;;;;;;5061766;28;20028;-77
2021/07/04 10:30:38;;;;;;;3.63;2.30;;;;;;;;;;5063369;28;20047;-76
2021/07/04 10:33:23;;;;;;;3.00;2.05;;;;;;;;;;5048843;28;20031;-76
2021/07/04 10:36:07;;;;;;;3.10;1.80;;;;;;;;;;5064449;28;20043;-77
2021/07/04 10:39:03;;;;;;;3.45;2.20;;;;;;;;;;5063735;28;20139;-76
2021/07/04 10:41:55;;;;;;;3.05;2.00;;;;;;;;;;5044094;28;20179;-77
2021/07/04 10:44:49;;;;;;;3.30;1.90;;;;;;;;;;5049954;28;20110;-76
2021/07/04 10:47:35;;;;;;;2.40;1.80;;;;;;;;;;5063963;28;20067;-77
2021/07/04 10:50:20;;;;;;;3.67;2.00;;;;;;;;;;5062583;28;20055;-77
2021/07/04 10:53:05;;;;;;;3.65;1.90;;;;;;;;;;5065276;28;20572;-76
2021/07/04 10:55:50;;;;;;;2.83;1.70;;;;;;;;;;5063090;28;20461;-77
2021/07/04 10:58:54;;;;;;;3.70;2.05;;;;;;;;;;5043113;28;20118;-77
2021/07/04 11:01:52;;;;;;;3.47;2.10;;;;;;;;;;5061224;28;20533;-77
2021/07/04 11:04:50;;;;;;;3.22;1.95;;;;;;;;;;5062933;28;20059;-77
2021/07/04 11:07:53;;;;;;;2.95;2.00;;;;;;;;;;5064867;28;20063;-77
2021/07/04 11:10:38;;;;;;;3.05;1.77;;;;;;;;;;5061689;28;20126;-77
2021/07/04 11:13:25;;;;;;;3.00;2.20;;;;;;;;;;5044836;28;20067;-77
2021/07/04 11:16:10;;;;;;;2.25;1.75;;;;;;;;;;5061029;28;20079;-77
2021/07/04 11:18:56;;;;;;;2.38;1.80;;;;;;;;;;5049507;28;20101;-77
2021/07/04 11:21:56;;;;;;;2.20;1.75;;;;;;;;;;5062415;28;20050;-77
2021/07/04 11:24:41;;;;;;;2.83;2.03;;;;;;;;;;5060635;28;20499;-77
2021/07/04 11:27:27;;;;;;;3.05;2.00;;;;;;;;;;5063047;28;20252;-77
2021/07/04 11:30:18;;;;;;;2.83;2.05;;;;;;;;;;5049829;28;20511;-76
2021/07/04 11:33:21;;;;;;;2.40;1.75;;;;;;;;;;5056813;28;20047;-76
2021/07/04 11:36:07;;;;;;;3.22;2.15;;;;;;;;;;5050502;28;20490;-76
2021/07/04 11:38:52;;;;;;;3.05;2.08;;;;;;;;;;5061720;28;20098;-77
2021/07/04 11:41:41;;;;;;;3.33;2.13;;;;;;;;;;5053831;28;20180;-78
2021/07/04 11:44:26;;;;;;;3.08;2.00;;;;;;;;;;5043825;28;20040;-77
2021/07/04 11:47:11;;;;;;;3.13;2.10;;;;;;;;;;5029523;28;20075;-77
2021/07/04 11:49:55;;;;;;;3.20;2.13;;;;;;;;;;5050410;28;20702;-76
2021/07/04 11:52:39;;;;;;;3.65;2.20;;;;;;;;;;5061222;28;20132;-76
2021/07/04 11:55:28;;;;;;;3.78;2.35;;;;;;;;;;5063104;28;20443;-77
2021/07/04 11:58:12;;;;;;;3.05;2.00;;;;;;;;;;5034708;28;20040;-77
2021/07/04 12:00:57;;;;;;;3.60;2.22;;;;;;;;;;5048552;28;20055;-77
2021/07/04 12:03:41;;;;;;;3.55;2.20;;;;;;;;;;5061732;28;20190;-77
2021/07/04 12:06:26;;;;;;;4.50;2.20;;;;;;;;;;5048965;28;20535;-76
2021/07/04 12:09:10;;;;;;;2.95;2.15;;;;;;;;;;5057086;28;20506;-77
2021/07/04 12:11:55;;;;;;;3.22;2.15;;;;;;;;;;5061673;28;20043;-77
2021/07/04 12:14:40;;;;;;;4.53;2.50;;;;;;;;;;5063137;28;20127;-77
2021/07/04 12:17:38;;;;;;;5.40;2.58;;;;;;;;;;5049178;28;20044;-77
2021/07/04 12:20:24;;;;;;;3.95;2.75;;;;;;;;;;5065837;28;20127;-77
2021/07/04 12:23:13;;;;;;;3.45;2.40;;;;;;;;;;5066651;28;20043;-77
2021/07/04 12:25:58;;;;;;;6.38;2.92;;;;;;;;;;5063363;28;20060;-77
2021/07/04 12:28:43;;;;;;;4.22;2.40;;;;;;;;;;5048276;28;20576;-77
2021/07/04 12:31:27;;;;;;;5.72;2.72;;;;;;;;;;5052051;28;20036;-77
2021/07/04 12:34:12;;;;;;;4.38;2.28;;;;;;;;;;5065493;28;20044;-77
2021/07/04 12:36:57;;;;;;;4.57;2.63;;;;;;;;;;5066174;28;20040;-77
2021/07/04 12:39:46;;;;;;;3.40;2.55;;;;;;;;;;5051467;28;20093;-77
2021/07/04 12:42:31;;;;;;;3.78;2.53;;;;;;;;;;5066997;28;20126;-76
2021/07/04 12:45:19;;;;;;;3.92;2.55;;;;;;;;;;5065506;28;20049;-77
2021/07/04 12:48:05;;;;;;;4.57;2.80;;;;;;;;;;5065242;28;20122;-76
2021/07/04 12:50:56;;;;;;;4.78;2.60;;;;;;;;;;5066028;28;20089;-77
2021/07/04 12:53:42;;;;;;;3.33;2.45;;;;;;;;;;5065977;28;20131;-76
2021/07/04 12:56:31;;;;;;;4.88;2.38;;;;;;;;;;5048929;28;20043;-77
2021/07/04 12:59:23;;;;;;;3.38;2.28;;;;;;;;;;5045203;28;20102;-77
2021/07/04 13:02:07;;;;;;;4.75;2.80;;;;;;;;;;5064478;28;20040;-78
2021/07/04 13:04:52;;;;;;;3.60;2.47;;;;;;;;;;5065859;28;20051;-76
2021/07/04 13:07:45;;;;;;;4.20;2.72;;;;;;;;;;5064763;28;20545;-77
2021/07/04 13:10:35;;;;;;;3.50;2.72;;;;;;;;;;5061847;28;20103;-77
2021/07/04 13:13:20;;;;;;;3.83;2.47;;;;;;;;;;5064567;28;20403;-77
2021/07/04 13:16:14;;;;;;;5.63;2.97;;;;;;;;;;5063530;28;20044;-77
2021/07/04 13:19:16;;;;;;;3.80;2.85;;;;;;;;;;5066201;28;20552;-77
2021/07/04 13:22:10;;;;;;;5.07;2.92;;;;;;;;;;5061808;28;20043;-77
2021/07/04 13:24:56;;;;;;;4.65;2.78;;;;;;;;;;5038999;28;20082;-77
2021/07/04 13:27:41;;;;;;;3.45;2.65;;;;;;;;;;5047406;28;20098;-76
2021/07/04 13:30:26;;;;;;;4.38;2.50;;;;;;;;;;5065102;28;20069;-77
2021/07/04 13:33:11;;;;;;;4.93;2.83;;;;;;;;;;5063736;28;20043;-76
2021/07/04 13:35:55;;;;;;;3.75;2.55;;;;;;;;;;5044796;28;20082;-77
2021/07/04 13:38:40;;;;;;;4.40;2.67;;;;;;;;;;5044992;28;20043;-76
2021/07/04 13:41:24;;;;;;;5.28;2.70;;;;;;;;;;5050474;28;20177;-77
2021/07/04 13:44:09;;;;;;;4.00;2.60;;;;;;;;;;5063187;28;20032;-77
2021/07/04 13:46:53;;;;;;;3.60;2.90;;;;;;;;;;5064671;28;20603;-77
2021/07/04 13:49:38;;;;;;;3.67;2.60;;;;;;;;;;5064049;28;20118;-77
2021/07/04 13:52:22;;;;;;;4.13;2.60;;;;;;;;;;5064749;28;20043;-77
2021/07/04 13:55:08;;;;;;;3.28;2.20;;;;;;;;;;5063470;28;20083;-77
2021/07/04 13:57:53;;;;;;;3.85;2.42;;;;;;;;;;5061803;28;20039;-77
2021/07/04 14:00:37;;;;;;;3.58;2.30;;;;;;;;;;5064756;28;20075;-77
2021/07/04 14:03:22;;;;;;;3.75;2.42;;;;;;;;;;5065029;28;20118;-77
2021/07/04 14:06:07;;;;;;;4.13;2.50;;;;;;;;;;5064408;28;20088;-77
2021/07/04 14:08:52;;;;;;;3.42;2.45;;;;;;;;;;5064405;28;20574;-76
2021/07/04 14:11:36;;;;;;;3.05;2.45;;;;;;;;;;5059777;28;20086;-76
2021/07/04 14:14:21;;;;;;;3.60;2.10;;;;;;;;;;5041544;28;20056;-78
2021/07/04 14:17:05;;;;;;;3.88;2.50;;;;;;;;;;5062730;28;20050;-78
2021/07/04 14:19:51;;;;;;;3.50;2.13;;;;;;;;;;5049966;28;20059;-78
2021/07/04 14:22:36;;;;;;;4.32;2.80;;;;;;;;;;5063319;28;20119;-78
2021/07/04 14:25:22;;;;;;;5.18;2.58;;;;;;;;;;5035373;28;20042;-77
2021/07/04 14:28:07;;;;;;;4.47;2.40;;;;;;;;;;5063043;28;20082;-78
2021/07/04 14:30:52;;;;;;;3.47;2.42;;;;;;;;;;5063924;28;20576;-78
2021/07/04 14:33:37;;;;;;;3.13;2.20;;;;;;;;;;5050398;28;20570;-78
2021/07/04 14:36:21;;;;;;;3.60;2.40;;;;;;;;;;5048330;28;20386;-77
2021/07/04 14:39:06;;;;;;;3.05;2.30;;;;;;;;;;5044508;28;20171;-79
2021/07/04 14:41:51;;;;;;;3.63;2.30;;;;;;;;;;5063335;28;20097;-79
2021/07/04 14:44:35;;;;;;;3.10;2.20;;;;;;;;;;5049379;28;20043;-79
2021/07/04 14:47:20;;;;;;;4.20;2.95;;;;;;;;;;5048528;28;20047;-79
2021/07/04 14:50:05;;;;;;;3.50;2.65;;;;;;;;;;5048758;28;20035;-79
2021/07/04 14:52:50;;;;;;;6.22;4.20;;;;;;;;;;5049545;28;20132;-80
2021/07/04 14:55:39;;;;;;;4.65;3.40;;;;;;;;;;5043509;28;20520;-79
2021/07/04 14:58:24;;;;;;;6.00;4.68;;;;;;;;;;5056269;28;20040;-79
2021/07/04 15:01:09;;;;;;;6.68;4.50;;;;;;;;;;5064980;28;20074;-79
2021/07/04 15:03:53;;;;;;;5.80;4.57;;;;;;;;;;5063735;28;20090;-79
2021/07/04 15:06:38;;;;;;;8.05;6.07;;;;;;;;;;5063656;28;20388;-79
2021/07/04 15:09:23;;;;;;;6.18;5.05;;;;;;;;;;5062363;28;20494;-79
2021/07/04 15:12:08;;;;;;;7.53;5.70;;;;;;;;;;5061815;28;20047;-79
2021/07/04 15:14:53;;;;;;;5.13;4.28;;;;;;;;;;5062890;28;20575;-79
2021/07/04 15:17:37;;;;;;;8.13;5.22;;;;;;;;;;5063671;28;20043;-79
2021/07/04 15:20:22;;;;;;;6.53;4.70;;;;;;;;;;5063283;28;20585;-79
2021/07/04 15:23:07;;;;;;;7.15;4.68;;;;;;;;;;5061462;28;20039;-79
2021/07/04 15:25:52;;;;;;;5.72;4.55;;;;;;;;;;5061238;28;20082;-79
2021/07/04 15:28:36;;;;;;;4.93;4.30;;;;;;;;;;5054162;28;20040;-79
2021/07/04 15:31:21;;;;;;;5.28;4.50;;;;;;;;;;5064338;28;20044;-79
2021/07/04 15:34:06;;;;;;;6.18;4.20;;;;;;;;;;5063139;28;20583;-78
2021/07/04 15:36:50;;;;;;;6.28;4.10;;;;;;;;;;5064627;28;20043;-79
2021/07/04 15:39:35;;;;;;;4.63;3.60;;;;;;;;;;5047714;28;20058;-79
2021/07/04 15:42:19;;;;;;;4.30;3.42;;;;;;;;;;5063222;28;20055;-79
2021/07/04 15:45:05;;;;;;;4.72;3.67;;;;;;;;;;5062574;28;20181;-78
2021/07/04 15:47:49;;;;;;;4.05;3.30;;;;;;;;;;5049741;28;20292;-78
2021/07/04 15:50:34;;;;;;;4.22;3.47;;;;;;;;;;5062579;28;20043;-79
2021/07/04 15:53:19;;;;;;;4.03;3.38;;;;;;;;;;5065035;28;20098;-78
2021/07/04 15:56:05;;;;;;;3.50;3.03;;;;;;;;;;5045461;28;20047;-79
2021/07/04 15:58:50;;;;;;;4.75;3.58;;;;;;;;;;5058742;28;20340;-77
2021/07/04 16:01:35;;;;;;;5.75;3.22;;;;;;;;;;5073226;28;20051;-77
2021/07/04 16:04:20;;;;;;;3.97;2.83;;;;;;;;;;5063137;28;20036;-78
2021/07/04 16:07:05;;;;;;;3.33;2.85;;;;;;;;;;5066875;28;20067;-79
2021/07/04 16:09:49;;;;;;;4.57;3.10;;;;;;;;;;5064498;28;20043;-78
2021/07/04 16:12:34;;;;;;;4.93;2.70;;;;;;;;;;5061132;28;20093;-78
2021/07/04 16:15:18;;;;;;;4.10;3.03;;;;;;;;;;5049623;28;20071;-78
2021/07/04 16:18:03;;;;;;;3.75;2.70;;;;;;;;;;5055318;28;20259;-77
2021/07/04 16:20:47;;;;;;;5.15;2.70;;;;;;;;;;5070194;28;20047;-79
2021/07/04 16:23:32;;;;;;;4.45;2.70;;;;;;;;;;5060054;28;20395;-78
2021/07/04 16:26:16;;;;;;;3.42;2.75;;;;;;;;;;5064700;28;20043;-80
2021/07/04 16:29:01;;;;;;;2.92;2.22;;;;;;;;;;5069463;28;20129;-79
2021/07/04 16:31:46;;;;;;;4.45;2.50;;;;;;;;;;5065643;28;20375;-81
2021/07/04 16:34:30;;;;;;;3.03;2.40;;;;;;;;;;5072063;28;20572;-80